This is the latest recevied weather packets stored in our database for station/object YF9UAG-16. If no packets are shown the sender has not sent any weather packets the latest 10 day(s).
| Time | Temp. | Humidity | Pressure | Rain* | Wind** | Luminosity | Snow |
|---|---|---|---|---|---|---|---|
| 1777794328 | 30.56° C | 64% | 1007 hPa | - | - | 0 W/m² | - |
| 1777794006 | 31.11° C | 65% | 1007 hPa | - | - | 0 W/m² | - |
| 1777793684 | 31.11° C | 63% | 1007 hPa | - | - | 0 W/m² | - |
| 1777793362 | 31.11° C | 63% | 1007 hPa | - | - | 0 W/m² | - |
| 1777793013 | 31.11° C | 62% | 1007 hPa | - | - | 0 W/m² | - |
| 1777792691 | 31.67° C | 62% | 1007 hPa | - | - | 0 W/m² | - |
| 1777792369 | 31.67° C | 61% | 1007 hPa | - | - | 0 W/m² | - |
| 1777792047 | 31.67° C | 60% | 1007 hPa | - | - | 0 W/m² | - |
| 1777791725 | 32.22° C | 59% | 1007 hPa | - | - | 0 W/m² | - |
| 1777791403 | 32.22° C | 59% | 1006 hPa | - | - | 0 W/m² | - |
| 1777791081 | 32.78° C | 58% | 1006 hPa | - | - | 0 W/m² | - |
| 1777790759 | 32.78° C | 58% | 1006 hPa | - | - | 0 W/m² | - |
| 1777790437 | 32.78° C | 57% | 1006 hPa | - | - | 0 W/m² | - |
| 1777790115 | 33.33° C | 56% | 1006 hPa | - | - | 0 W/m² | - |
| 1777789793 | 33.89° C | 54% | 1006 hPa | - | - | 0 W/m² | - |
| 1777789471 | 34.44° C | 53% | 1006 hPa | - | - | 0 W/m² | - |
| 1777789149 | 35° C | 51% | 1006 hPa | - | - | 0 W/m² | - |
| 1777788827 | 36.11° C | 48% | 1006 hPa | - | - | 0 W/m² | - |
| 1777788505 | 37.22° C | 44% | 1006 hPa | - | - | 0 W/m² | - |
| 1777788183 | 38.33° C | 43% | 1006 hPa | - | - | 0 W/m² | - |
| 1777787861 | 40° C | 39% | 1006 hPa | - | - | 0 W/m² | - |
| 1777787539 | 40.56° C | 37% | 1006 hPa | - | - | 0 W/m² | - |
| 1777787217 | 41.67° C | 35% | 1006 hPa | - | - | 0 W/m² | - |
| 1777786895 | 41.11° C | 38% | 1006 hPa | - | - | 0 W/m² | - |
| 1777786573 | 40.56° C | 37% | 1006 hPa | - | - | 0 W/m² | - |
* Rain since midnight (hover to see other rain measurements)
** Current wind speed in m/s (hover to see current wind gust speed)